LIME Airport Information

Runway Information
Runway 10 Length 9636 ft width 148 ft
Elevation 779 ft Threshold 312 ft Heading 105
Runway 28 Length 9636 ft Width 148 ft
Elevation 754 ft Threshold 427 ft Heading 285
Runway 12 Length 2552 ft width 59 ft
Elevation 782 ft Threshold 210 ft Heading 121
Runway 30 Length 2552 ft Width 59 ft
Elevation 782 ft Threshold 328 ft Heading 301
Airport Frequencies
Type APP Name MILANO APP Frequency 126.75 MHZ
Type ATIS Name ATIS Frequency 112.6 MHZ
Type GND Name ORIO GND Frequency 120.5 MHZ
Type TWR Name ORIO TWR Frequency 126.5 MHZ
Airport Navaids
Type VOR-DME Name Orio Al Serio Frequency 112600 KHZ
Type NDB Name Orio Al Serio Frequency 377 KHZ
Airport Weather Information & NOTAM
ADDS - METARS form results

(1243 UTC 21 May 2022)
Data provider http://aviationweather.gov/metar/data/
 
METAR text: LIME 211220Z 27007KT 210V320 9999 FEW120 29/16 Q1017 NOSIG
Conditions at: LIME (BERGAMO/ORIO SER, IT) observed 1220 UTC 21 May 2022
Temperature: 29.0°C (84°F)
Dewpoint: 16.0°C (61°F) [RH = 45%]
Pressure (altimeter): 30.03 inches Hg (1017.0 mb)
Winds: from the W (270 degrees) at 8 MPH (7 knots; 3.6 m/s)
Visibility: 6 or more miles (10+ km)
Ceiling: at least 12,000 feet AGL
Clouds: few clouds at 12000 feet AGL
Weather: no significant weather observed at this time

METAR text: LIME 211150Z 28006KT 230V320 CAVOK 28/16 Q1017 NOSIG
Conditions at: LIME (BERGAMO/ORIO SER, IT) observed 1150 UTC 21 May 2022
Temperature: 28.0°C (82°F)
Dewpoint: 16.0°C (61°F) [RH = 48%]
Pressure (altimeter): 30.03 inches Hg (1017.0 mb)
Winds: from the W (280 degrees) at 7 MPH (6 knots; 3.1 m/s)
Visibility: 6 or more miles (10+ km)
Ceiling: ceiling and visibility are OK
Clouds: unknown
Weather: no significant weather observed at this time

Forecast for: LIME (BERGAMO/ORIO SER, IT)
Text: TAF LIME 211100Z 2112/2212 25010KT CAVOK
Forecast period: 1200 to 1800 UTC 21 May 2022
Forecast type: FROM: standard forecast or significant change
Winds: from the WSW (250 degrees) at 12 MPH (10 knots; 5.1 m/s)
Visibility: 6 or more miles (10+ km)
Ceiling: unknown
Clouds: missing
Weather: NSW  (no significant weather)
Text: BECMG 2118/2120 01010KT
Forecast period: 1800 to 2300 UTC 21 May 2022
Forecast type: BECOMING: Conditions expected to become as follows by 2000 UTC 21 May 2022
Winds: from the N (10 degrees) at 12 MPH (10 knots; 5.1 m/s)
Visibility: 6 or more miles (10+ km)
Ceiling: unknown
Clouds: missing
Weather: NSW  (no significant weather)
Text: BECMG 2123/2201 VRB05KT
Forecast period: 2300 UTC 21 May 2022 to 1200 UTC 22 May 2022
Forecast type: BECOMING: Conditions expected to become as follows by 0100 UTC 22 May 2022
Winds: variable direction winds at 6 MPH (5 knots; 2.6 m/s)
Visibility: 6 or more miles (10+ km)
Ceiling: unknown
Clouds: missing
Weather: NSW  (no significant weather)